sensor_id;sensor_type;location;lat;lon;timestamp;P1;durP1;ratioP1;P2;durP2;ratioP2
71183;SDS011;58887;51.980;4.464;2023-02-26T00:00:17;4.23;;;4.23;;
71183;SDS011;58887;51.980;4.464;2023-02-26T00:02:45;4.94;;;4.94;;
71183;SDS011;58887;51.980;4.464;2023-02-26T00:05:13;5.39;;;5.39;;
71183;SDS011;58887;51.980;4.464;2023-02-26T00:07:40;9.36;;;9.36;;
71183;SDS011;58887;51.980;4.464;2023-02-26T00:10:07;7.18;;;7.18;;
71183;SDS011;58887;51.980;4.464;2023-02-26T00:12:35;5.11;;;5.11;;
71183;SDS011;58887;51.980;4.464;2023-02-26T00:15:01;5.45;;;5.45;;
71183;SDS011;58887;51.980;4.464;2023-02-26T00:17:31;5.85;;;5.85;;
71183;SDS011;58887;51.980;4.464;2023-02-26T00:20:06;4.64;;;4.64;;
71183;SDS011;58887;51.980;4.464;2023-02-26T00:22:33;3.72;;;3.72;;
71183;SDS011;58887;51.980;4.464;2023-02-26T00:24:58;2.65;;;2.65;;
71183;SDS011;58887;51.980;4.464;2023-02-26T00:27:24;2.71;;;2.71;;
71183;SDS011;58887;51.980;4.464;2023-02-26T00:29:50;2.70;;;2.70;;
71183;SDS011;58887;51.980;4.464;2023-02-26T00:32:16;2.40;;;2.40;;
71183;SDS011;58887;51.980;4.464;2023-02-26T00:34:43;2.03;;;2.03;;
71183;SDS011;58887;51.980;4.464;2023-02-26T00:42:39;4.44;;;4.44;;
71183;SDS011;58887;51.980;4.464;2023-02-26T00:45:05;7.25;;;7.25;;
71183;SDS011;58887;51.980;4.464;2023-02-26T00:50:27;25.93;;;25.93;;
71183;SDS011;58887;51.980;4.464;2023-02-26T00:55:43;92.16;;;92.16;;
71183;SDS011;58887;51.980;4.464;2023-02-26T00:58:08;136.34;;;136.34;;
71183;SDS011;58887;51.980;4.464;2023-02-26T01:00:34;196.46;;;196.46;;
71183;SDS011;58887;51.980;4.464;2023-02-26T01:03:07;154.29;;;154.29;;
71183;SDS011;58887;51.980;4.464;2023-02-26T01:05:33;111.58;;;111.58;;
71183;SDS011;58887;51.980;4.464;2023-02-26T01:08:08;54.64;;;54.64;;
71183;SDS011;58887;51.980;4.464;2023-02-26T01:10:41;28.87;;;28.87;;
71183;SDS011;58887;51.980;4.464;2023-02-26T01:13:07;24.97;;;24.97;;
71183;SDS011;58887;51.980;4.464;2023-02-26T01:15:33;17.12;;;17.12;;
71183;SDS011;58887;51.980;4.464;2023-02-26T01:18:17;14.87;;;14.87;;
71183;SDS011;58887;51.980;4.464;2023-02-26T01:20:52;17.33;;;17.33;;
71183;SDS011;58887;51.980;4.464;2023-02-26T01:23:26;19.83;;;19.83;;
71183;SDS011;58887;51.980;4.464;2023-02-26T01:26:00;9.02;;;9.02;;
71183;SDS011;58887;51.980;4.464;2023-02-26T01:28:39;6.90;;;6.90;;
71183;SDS011;58887;51.980;4.464;2023-02-26T01:31:06;6.29;;;6.29;;
71183;SDS011;58887;51.980;4.464;2023-02-26T01:34:05;9.64;;;9.64;;
71183;SDS011;58887;51.980;4.464;2023-02-26T01:36:40;20.23;;;20.23;;
71183;SDS011;58887;51.980;4.464;2023-02-26T01:39:16;24.19;;;24.19;;
71183;SDS011;58887;51.980;4.464;2023-02-26T01:41:54;34.70;;;34.70;;
71183;SDS011;58887;51.980;4.464;2023-02-26T01:50:17;29.59;;;29.59;;
71183;SDS011;58887;51.980;4.464;2023-02-26T01:55:14;33.89;;;33.89;;
71183;SDS011;58887;51.980;4.464;2023-02-26T01:57:44;44.58;;;44.58;;
71183;SDS011;58887;51.980;4.464;2023-02-26T02:00:11;69.34;;;69.34;;
71183;SDS011;58887;51.980;4.464;2023-02-26T02:02:38;65.14;;;65.14;;
71183;SDS011;58887;51.980;4.464;2023-02-26T02:05:06;105.63;;;105.63;;
71183;SDS011;58887;51.980;4.464;2023-02-26T02:07:45;132.40;;;132.40;;
71183;SDS011;58887;51.980;4.464;2023-02-26T02:10:10;125.29;;;125.29;;
71183;SDS011;58887;51.980;4.464;2023-02-26T02:15:44;101.07;;;101.07;;
71183;SDS011;58887;51.980;4.464;2023-02-26T02:18:21;76.93;;;76.93;;
71183;SDS011;58887;51.980;4.464;2023-02-26T02:23:50;85.71;;;85.71;;
71183;SDS011;58887;51.980;4.464;2023-02-26T02:31:46;84.18;;;84.18;;
71183;SDS011;58887;51.980;4.464;2023-02-26T02:34:33;99.31;;;99.31;;
71183;SDS011;58887;51.980;4.464;2023-02-26T02:37:12;107.13;;;107.13;;
71183;SDS011;58887;51.980;4.464;2023-02-26T02:43:18;158.32;;;158.32;;
71183;SDS011;58887;51.980;4.464;2023-02-26T02:45:52;191.86;;;191.86;;
71183;SDS011;58887;51.980;4.464;2023-02-26T02:56:28;265.68;;;265.68;;
71183;SDS011;58887;51.980;4.464;2023-02-26T02:59:02;267.82;;;267.82;;
71183;SDS011;58887;51.980;4.464;2023-02-26T03:01:44;252.64;;;252.64;;
71183;SDS011;58887;51.980;4.464;2023-02-26T03:04:33;239.04;;;239.04;;
71183;SDS011;58887;51.980;4.464;2023-02-26T03:07:02;236.47;;;236.47;;
71183;SDS011;58887;51.980;4.464;2023-02-26T03:09:28;231.97;;;231.97;;
71183;SDS011;58887;51.980;4.464;2023-02-26T03:11:54;227.70;;;227.70;;
71183;SDS011;58887;51.980;4.464;2023-02-26T03:14:20;239.01;;;239.01;;
71183;SDS011;58887;51.980;4.464;2023-02-26T03:19:29;228.25;;;228.25;;
71183;SDS011;58887;51.980;4.464;2023-02-26T03:22:38;254.72;;;254.72;;
71183;SDS011;58887;51.980;4.464;2023-02-26T03:24:59;264.49;;;264.49;;
71183;SDS011;58887;51.980;4.464;2023-02-26T03:30:18;288.65;;;288.65;;
71183;SDS011;58887;51.980;4.464;2023-02-26T03:33:10;304.19;;;304.19;;
71183;SDS011;58887;51.980;4.464;2023-02-26T03:35:48;320.54;;;320.54;;
71183;SDS011;58887;51.980;4.464;2023-02-26T03:38:24;313.09;;;313.09;;
71183;SDS011;58887;51.980;4.464;2023-02-26T03:41:16;328.75;;;328.75;;
71183;SDS011;58887;51.980;4.464;2023-02-26T03:43:53;337.26;;;337.26;;
71183;SDS011;58887;51.980;4.464;2023-02-26T03:46:35;321.81;;;321.81;;
71183;SDS011;58887;51.980;4.464;2023-02-26T03:49:09;288.21;;;288.21;;
71183;SDS011;58887;51.980;4.464;2023-02-26T03:51:42;287.69;;;287.69;;
71183;SDS011;58887;51.980;4.464;2023-02-26T03:57:01;247.64;;;247.64;;
71183;SDS011;58887;51.980;4.464;2023-02-26T03:59:28;224.83;;;224.83;;
71183;SDS011;58887;51.980;4.464;2023-02-26T04:06:52;188.80;;;188.80;;
71183;SDS011;58887;51.980;4.464;2023-02-26T04:09:19;171.61;;;171.61;;
71183;SDS011;58887;51.980;4.464;2023-02-26T04:11:45;172.36;;;172.36;;
71183;SDS011;58887;51.980;4.464;2023-02-26T04:14:24;178.00;;;178.00;;
71183;SDS011;58887;51.980;4.464;2023-02-26T04:16:58;180.42;;;180.42;;
71183;SDS011;58887;51.980;4.464;2023-02-26T04:22:11;186.84;;;186.84;;
71183;SDS011;58887;51.980;4.464;2023-02-26T04:24:37;177.99;;;177.99;;
71183;SDS011;58887;51.980;4.464;2023-02-26T04:27:03;165.96;;;165.96;;
71183;SDS011;58887;51.980;4.464;2023-02-26T04:29:28;137.46;;;137.46;;
71183;SDS011;58887;51.980;4.464;2023-02-26T04:31:54;171.11;;;171.11;;
71183;SDS011;58887;51.980;4.464;2023-02-26T04:34:23;162.31;;;162.31;;
71183;SDS011;58887;51.980;4.464;2023-02-26T04:37:00;156.71;;;156.71;;
71183;SDS011;58887;51.980;4.464;2023-02-26T04:39:34;180.94;;;180.94;;
71183;SDS011;58887;51.980;4.464;2023-02-26T04:42:00;180.69;;;180.69;;
71183;SDS011;58887;51.980;4.464;2023-02-26T04:47:12;184.40;;;184.40;;
71183;SDS011;58887;51.980;4.464;2023-02-26T04:49:48;143.76;;;143.76;;
71183;SDS011;58887;51.980;4.464;2023-02-26T04:52:14;141.16;;;141.16;;
71183;SDS011;58887;51.980;4.464;2023-02-26T04:54:41;141.24;;;141.24;;
71183;SDS011;58887;51.980;4.464;2023-02-26T04:57:07;139.97;;;139.97;;
71183;SDS011;58887;51.980;4.464;2023-02-26T04:59:33;120.60;;;120.60;;
71183;SDS011;58887;51.980;4.464;2023-02-26T05:02:03;144.24;;;144.24;;
71183;SDS011;58887;51.980;4.464;2023-02-26T05:07:00;123.13;;;123.13;;
71183;SDS011;58887;51.980;4.464;2023-02-26T05:09:26;127.07;;;127.07;;
71183;SDS011;58887;51.980;4.464;2023-02-26T05:11:52;114.48;;;114.48;;
71183;SDS011;58887;51.980;4.464;2023-02-26T05:14:18;133.99;;;133.99;;
71183;SDS011;58887;51.980;4.464;2023-02-26T05:16:48;150.74;;;150.74;;
71183;SDS011;58887;51.980;4.464;2023-02-26T05:19:22;131.77;;;131.77;;
71183;SDS011;58887;51.980;4.464;2023-02-26T05:21:47;119.66;;;119.66;;
71183;SDS011;58887;51.980;4.464;2023-02-26T05:29:33;147.12;;;147.12;;
71183;SDS011;58887;51.980;4.464;2023-02-26T05:32:01;128.35;;;128.35;;
71183;SDS011;58887;51.980;4.464;2023-02-26T05:34:31;144.08;;;144.08;;
71183;SDS011;58887;51.980;4.464;2023-02-26T05:37:15;111.70;;;111.70;;
71183;SDS011;58887;51.980;4.464;2023-02-26T05:39:45;100.22;;;100.22;;
71183;SDS011;58887;51.980;4.464;2023-02-26T05:42:13;96.57;;;96.57;;
71183;SDS011;58887;51.980;4.464;2023-02-26T05:44:39;121.82;;;121.82;;
71183;SDS011;58887;51.980;4.464;2023-02-26T05:47:05;140.37;;;140.37;;
71183;SDS011;58887;51.980;4.464;2023-02-26T05:49:39;157.24;;;157.24;;
71183;SDS011;58887;51.980;4.464;2023-02-26T05:52:04;163.90;;;163.90;;
71183;SDS011;58887;51.980;4.464;2023-02-26T05:54:40;184.40;;;184.40;;
71183;SDS011;58887;51.980;4.464;2023-02-26T05:57:13;200.46;;;200.46;;
71183;SDS011;58887;51.980;4.464;2023-02-26T05:59:39;133.45;;;133.45;;
71183;SDS011;58887;51.980;4.464;2023-02-26T06:02:04;156.78;;;156.78;;
71183;SDS011;58887;51.980;4.464;2023-02-26T06:04:30;152.83;;;152.83;;
71183;SDS011;58887;51.980;4.464;2023-02-26T06:06:55;145.31;;;145.31;;
71183;SDS011;58887;51.980;4.464;2023-02-26T06:09:21;118.67;;;118.67;;
71183;SDS011;58887;51.980;4.464;2023-02-26T06:11:46;160.11;;;160.11;;
71183;SDS011;58887;51.980;4.464;2023-02-26T06:14:12;129.51;;;129.51;;
71183;SDS011;58887;51.980;4.464;2023-02-26T06:16:37;136.97;;;136.97;;
71183;SDS011;58887;51.980;4.464;2023-02-26T06:19:03;175.61;;;175.61;;
71183;SDS011;58887;51.980;4.464;2023-02-26T06:21:28;184.93;;;184.93;;
71183;SDS011;58887;51.980;4.464;2023-02-26T06:23:54;214.61;;;214.61;;
71183;SDS011;58887;51.980;4.464;2023-02-26T06:26:21;166.97;;;166.97;;
71183;SDS011;58887;51.980;4.464;2023-02-26T06:28:47;155.78;;;155.78;;
71183;SDS011;58887;51.980;4.464;2023-02-26T06:31:12;148.65;;;148.65;;
71183;SDS011;58887;51.980;4.464;2023-02-26T06:33:38;141.45;;;141.45;;
71183;SDS011;58887;51.980;4.464;2023-02-26T06:36:03;173.74;;;173.74;;
71183;SDS011;58887;51.980;4.464;2023-02-26T06:38:29;127.07;;;127.07;;
71183;SDS011;58887;51.980;4.464;2023-02-26T06:40:55;159.89;;;159.89;;
71183;SDS011;58887;51.980;4.464;2023-02-26T06:43:20;161.18;;;161.18;;
71183;SDS011;58887;51.980;4.464;2023-02-26T06:45:46;162.74;;;162.74;;
71183;SDS011;58887;51.980;4.464;2023-02-26T06:48:12;152.25;;;152.25;;
71183;SDS011;58887;51.980;4.464;2023-02-26T06:50:38;174.62;;;174.62;;
71183;SDS011;58887;51.980;4.464;2023-02-26T06:53:04;183.15;;;183.15;;
71183;SDS011;58887;51.980;4.464;2023-02-26T06:55:30;185.99;;;185.99;;
71183;SDS011;58887;51.980;4.464;2023-02-26T06:57:56;130.32;;;130.32;;
71183;SDS011;58887;51.980;4.464;2023-02-26T07:00:22;128.25;;;128.25;;
71183;SDS011;58887;51.980;4.464;2023-02-26T07:05:18;169.81;;;169.81;;
71183;SDS011;58887;51.980;4.464;2023-02-26T07:07:44;218.88;;;218.88;;
71183;SDS011;58887;51.980;4.464;2023-02-26T07:10:22;191.02;;;191.02;;
71183;SDS011;58887;51.980;4.464;2023-02-26T07:12:49;218.46;;;218.46;;
71183;SDS011;58887;51.980;4.464;2023-02-26T07:15:15;207.58;;;207.58;;
71183;SDS011;58887;51.980;4.464;2023-02-26T07:17:41;250.10;;;250.10;;
71183;SDS011;58887;51.980;4.464;2023-02-26T07:20:07;309.31;;;309.31;;
71183;SDS011;58887;51.980;4.464;2023-02-26T07:22:37;417.94;;;417.94;;
71183;SDS011;58887;51.980;4.464;2023-02-26T07:25:04;416.87;;;416.87;;
71183;SDS011;58887;51.980;4.464;2023-02-26T07:27:37;418.01;;;418.01;;
71183;SDS011;58887;51.980;4.464;2023-02-26T07:30:03;416.52;;;416.52;;
71183;SDS011;58887;51.980;4.464;2023-02-26T07:32:31;383.34;;;383.34;;
71183;SDS011;58887;51.980;4.464;2023-02-26T07:34:57;352.65;;;352.65;;
71183;SDS011;58887;51.980;4.464;2023-02-26T07:37:27;359.40;;;359.40;;
71183;SDS011;58887;51.980;4.464;2023-02-26T07:39:58;340.72;;;340.72;;
71183;SDS011;58887;51.980;4.464;2023-02-26T07:42:25;354.08;;;354.08;;
71183;SDS011;58887;51.980;4.464;2023-02-26T07:44:52;349.65;;;349.65;;
71183;SDS011;58887;51.980;4.464;2023-02-26T07:47:23;312.47;;;312.47;;
71183;SDS011;58887;51.980;4.464;2023-02-26T07:49:52;297.78;;;297.78;;
71183;SDS011;58887;51.980;4.464;2023-02-26T07:52:20;284.41;;;284.41;;
71183;SDS011;58887;51.980;4.464;2023-02-26T07:54:47;273.34;;;273.34;;
71183;SDS011;58887;51.980;4.464;2023-02-26T07:57:20;240.61;;;240.61;;
71183;SDS011;58887;51.980;4.464;2023-02-26T07:59:49;187.16;;;187.16;;
71183;SDS011;58887;51.980;4.464;2023-02-26T08:02:16;140.31;;;140.31;;
71183;SDS011;58887;51.980;4.464;2023-02-26T08:04:44;95.76;;;95.76;;
71183;SDS011;58887;51.980;4.464;2023-02-26T08:07:13;42.00;;;42.00;;
71183;SDS011;58887;51.980;4.464;2023-02-26T08:09:38;34.42;;;34.42;;
71183;SDS011;58887;51.980;4.464;2023-02-26T08:12:14;39.55;;;39.55;;
71183;SDS011;58887;51.980;4.464;2023-02-26T08:14:41;33.63;;;33.63;;
71183;SDS011;58887;51.980;4.464;2023-02-26T08:17:07;14.61;;;14.61;;
71183;SDS011;58887;51.980;4.464;2023-02-26T08:19:34;1.52;;;1.52;;
71183;SDS011;58887;51.980;4.464;2023-02-26T08:24:33;0.70;;;0.70;;
71183;SDS011;58887;51.980;4.464;2023-02-26T08:26:59;0.75;;;0.75;;
71183;SDS011;58887;51.980;4.464;2023-02-26T08:29:25;0.59;;;0.59;;
71183;SDS011;58887;51.980;4.464;2023-02-26T08:31:50;0.50;;;0.50;;
71183;SDS011;58887;51.980;4.464;2023-02-26T08:34:16;0.56;;;0.56;;
71183;SDS011;58887;51.980;4.464;2023-02-26T08:36:43;0.76;;;0.76;;
71183;SDS011;58887;51.980;4.464;2023-02-26T08:39:15;0.46;;;0.46;;
71183;SDS011;58887;51.980;4.464;2023-02-26T08:41:44;0.52;;;0.50;;
71183;SDS011;58887;51.980;4.464;2023-02-26T08:44:13;117.89;;;117.13;;
71183;SDS011;58887;51.980;4.464;2023-02-26T08:46:39;0.70;;;0.70;;
71183;SDS011;58887;51.980;4.464;2023-02-26T08:49:06;0.74;;;0.74;;
71183;SDS011;58887;51.980;4.464;2023-02-26T08:51:31;0.63;;;0.63;;
71183;SDS011;58887;51.980;4.464;2023-02-26T08:53:59;0.48;;;0.48;;
71183;SDS011;58887;51.980;4.464;2023-02-26T08:56:24;0.48;;;0.48;;
71183;SDS011;58887;51.980;4.464;2023-02-26T08:58:52;0.56;;;0.56;;
71183;SDS011;58887;51.980;4.464;2023-02-26T09:01:17;336.14;;;336.14;;
71183;SDS011;58887;51.980;4.464;2023-02-26T09:03:44;0.60;;;0.60;;
71183;SDS011;58887;51.980;4.464;2023-02-26T09:06:10;0.61;;;0.61;;
71183;SDS011;58887;51.980;4.464;2023-02-26T09:08:35;0.55;;;0.55;;
71183;SDS011;58887;51.980;4.464;2023-02-26T09:11:01;0.46;;;0.46;;
71183;SDS011;58887;51.980;4.464;2023-02-26T09:13:29;0.51;;;0.51;;
71183;SDS011;58887;51.980;4.464;2023-02-26T09:15:55;0.51;;;0.51;;
71183;SDS011;58887;51.980;4.464;2023-02-26T09:18:21;0.62;;;0.62;;
71183;SDS011;58887;51.980;4.464;2023-02-26T09:20:47;0.56;;;0.56;;
71183;SDS011;58887;51.980;4.464;2023-02-26T09:23:14;0.58;;;0.58;;
71183;SDS011;58887;51.980;4.464;2023-02-26T09:25:55;0.62;;;0.62;;
71183;SDS011;58887;51.980;4.464;2023-02-26T09:28:22;0.64;;;0.64;;
71183;SDS011;58887;51.980;4.464;2023-02-26T09:30:52;0.43;;;0.43;;
71183;SDS011;58887;51.980;4.464;2023-02-26T09:33:19;0.61;;;0.57;;
71183;SDS011;58887;51.980;4.464;2023-02-26T09:35:47;0.67;;;0.60;;
71183;SDS011;58887;51.980;4.464;2023-02-26T09:38:13;0.61;;;0.55;;
71183;SDS011;58887;51.980;4.464;2023-02-26T09:43:07;11.21;;;11.20;;
71183;SDS011;58887;51.980;4.464;2023-02-26T09:45:42;0.46;;;0.46;;
71183;SDS011;58887;51.980;4.464;2023-02-26T09:51:18;0.47;;;0.47;;
71183;SDS011;58887;51.980;4.464;2023-02-26T09:53:46;0.45;;;0.45;;
71183;SDS011;58887;51.980;4.464;2023-02-26T09:56:26;0.52;;;0.52;;
71183;SDS011;58887;51.980;4.464;2023-02-26T09:59:00;0.59;;;0.59;;
71183;SDS011;58887;51.980;4.464;2023-02-26T10:01:33;0.38;;;0.38;;
71183;SDS011;58887;51.980;4.464;2023-02-26T10:12:25;0.91;;;0.91;;
71183;SDS011;58887;51.980;4.464;2023-02-26T10:14:58;1.44;;;1.44;;
71183;SDS011;58887;51.980;4.464;2023-02-26T10:20:28;0.80;;;0.80;;
71183;SDS011;58887;51.980;4.464;2023-02-26T10:23:15;2.48;;;2.48;;
71183;SDS011;58887;51.980;4.464;2023-02-26T10:26:25;0.65;;;0.65;;
71183;SDS011;58887;51.980;4.464;2023-02-26T10:29:17;0.55;;;0.55;;
71183;SDS011;58887;51.980;4.464;2023-02-26T10:37:48;1.06;;;1.06;;
71183;SDS011;58887;51.980;4.464;2023-02-26T10:40:28;0.98;;;0.98;;
71183;SDS011;58887;51.980;4.464;2023-02-26T10:43:15;0.77;;;0.77;;
71183;SDS011;58887;51.980;4.464;2023-02-26T10:51:23;0.44;;;0.44;;
71183;SDS011;58887;51.980;4.464;2023-02-26T10:53:58;0.57;;;0.57;;
71183;SDS011;58887;51.980;4.464;2023-02-26T10:56:39;0.57;;;0.57;;
71183;SDS011;58887;51.980;4.464;2023-02-26T10:59:04;134.11;;;134.11;;
71183;SDS011;58887;51.980;4.464;2023-02-26T11:01:30;0.62;;;0.62;;
71183;SDS011;58887;51.980;4.464;2023-02-26T11:04:00;9.26;;;9.26;;
71183;SDS011;58887;51.980;4.464;2023-02-26T11:06:43;0.53;;;0.53;;
71183;SDS011;58887;51.980;4.464;2023-02-26T11:12:04;0.39;;;0.39;;
71183;SDS011;58887;51.980;4.464;2023-02-26T11:14:39;0.50;;;0.50;;
71183;SDS011;58887;51.980;4.464;2023-02-26T11:17:12;0.60;;;0.60;;
71183;SDS011;58887;51.980;4.464;2023-02-26T11:20:01;0.65;;;0.65;;
71183;SDS011;58887;51.980;4.464;2023-02-26T11:22:33;0.42;;;0.42;;
71183;SDS011;58887;51.980;4.464;2023-02-26T11:25:12;0.55;;;0.55;;
71183;SDS011;58887;51.980;4.464;2023-02-26T11:27:42;0.69;;;0.69;;
71183;SDS011;58887;51.980;4.464;2023-02-26T11:30:17;0.75;;;0.75;;
71183;SDS011;58887;51.980;4.464;2023-02-26T11:32:51;0.61;;;0.61;;
71183;SDS011;58887;51.980;4.464;2023-02-26T11:35:21;0.60;;;0.60;;
71183;SDS011;58887;51.980;4.464;2023-02-26T11:37:57;0.63;;;0.63;;
71183;SDS011;58887;51.980;4.464;2023-02-26T11:40:41;0.61;;;0.58;;
71183;SDS011;58887;51.980;4.464;2023-02-26T11:43:18;0.57;;;0.53;;
71183;SDS011;58887;51.980;4.464;2023-02-26T11:45:48;0.57;;;0.53;;
71183;SDS011;58887;51.980;4.464;2023-02-26T11:48:27;0.42;;;0.39;;
71183;SDS011;58887;51.980;4.464;2023-02-26T11:51:03;0.39;;;0.36;;
71183;SDS011;58887;51.980;4.464;2023-02-26T11:56:29;0.68;;;0.62;;
71183;SDS011;58887;51.980;4.464;2023-02-26T12:01:49;0.73;;;0.68;;
71183;SDS011;58887;51.980;4.464;2023-02-26T12:10:01;0.65;;;0.61;;
71183;SDS011;58887;51.980;4.464;2023-02-26T12:19:10;0.55;;;0.50;;
71183;SDS011;58887;51.980;4.464;2023-02-26T12:22:01;0.68;;;0.62;;
71183;SDS011;58887;51.980;4.464;2023-02-26T12:24:44;0.59;;;0.53;;
71183;SDS011;58887;51.980;4.464;2023-02-26T12:45:28;0.78;;;0.68;;
71183;SDS011;58887;51.980;4.464;2023-02-26T13:01:58;0.65;;;0.57;;
71183;SDS011;58887;51.980;4.464;2023-02-26T13:18:42;0.61;;;0.55;;
71183;SDS011;58887;51.980;4.464;2023-02-26T13:21:33;0.97;;;0.89;;
71183;SDS011;58887;51.980;4.464;2023-02-26T13:26:45;0.68;;;0.63;;
71183;SDS011;58887;51.980;4.464;2023-02-26T13:35:03;0.74;;;0.68;;
71183;SDS011;58887;51.980;4.464;2023-02-26T13:37:38;0.50;;;0.45;;
71183;SDS011;58887;51.980;4.464;2023-02-26T13:46:00;0.71;;;0.64;;
71183;SDS011;58887;51.980;4.464;2023-02-26T13:51:50;0.67;;;0.60;;
71183;SDS011;58887;51.980;4.464;2023-02-26T14:00:24;0.83;;;0.75;;
71183;SDS011;58887;51.980;4.464;2023-02-26T14:02:54;0.66;;;0.60;;
71183;SDS011;58887;51.980;4.464;2023-02-26T14:17:25;0.86;;;0.75;;
71183;SDS011;58887;51.980;4.464;2023-02-26T14:25:28;0.79;;;0.68;;
71183;SDS011;58887;51.980;4.464;2023-02-26T14:30:52;0.81;;;0.70;;
71183;SDS011;58887;51.980;4.464;2023-02-26T14:33:30;0.69;;;0.59;;
71183;SDS011;58887;51.980;4.464;2023-02-26T14:36:03;0.85;;;0.74;;
71183;SDS011;58887;51.980;4.464;2023-02-26T14:38:38;1.11;;;0.97;;
71183;SDS011;58887;51.980;4.464;2023-02-26T14:44:36;1.75;;;1.61;;
71183;SDS011;58887;51.980;4.464;2023-02-26T14:46:36;1.36;;;1.26;;
71183;SDS011;58887;51.980;4.464;2023-02-26T14:49:09;0.53;;;0.49;;
71183;SDS011;58887;51.980;4.464;2023-02-26T15:00:12;0.58;;;0.53;;
71183;SDS011;58887;51.980;4.464;2023-02-26T15:14:50;0.70;;;0.63;;
71183;SDS011;58887;51.980;4.464;2023-02-26T15:17:43;0.71;;;0.63;;
71183;SDS011;58887;51.980;4.464;2023-02-26T15:25:58;0.50;;;0.45;;
71183;SDS011;58887;51.980;4.464;2023-02-26T15:28:28;0.55;;;0.49;;
71183;SDS011;58887;51.980;4.464;2023-02-26T15:31:01;0.50;;;0.45;;
71183;SDS011;58887;51.980;4.464;2023-02-26T15:33:31;0.79;;;0.70;;
71183;SDS011;58887;51.980;4.464;2023-02-26T15:35:58;1.08;;;0.98;;
71183;SDS011;58887;51.980;4.464;2023-02-26T15:38:25;0.54;;;0.49;;
71183;SDS011;58887;51.980;4.464;2023-02-26T15:40:52;0.70;;;0.63;;
71183;SDS011;58887;51.980;4.464;2023-02-26T15:45:52;476.99;;;467.09;;
71183;SDS011;58887;51.980;4.464;2023-02-26T15:48:25;0.61;;;0.61;;
71183;SDS011;58887;51.980;4.464;2023-02-26T15:50:56;0.57;;;0.57;;
71183;SDS011;58887;51.980;4.464;2023-02-26T15:55:57;0.59;;;0.59;;
71183;SDS011;58887;51.980;4.464;2023-02-26T16:01:19;0.62;;;0.62;;
71183;SDS011;58887;51.980;4.464;2023-02-26T16:03:49;0.63;;;0.63;;
71183;SDS011;58887;51.980;4.464;2023-02-26T16:09:19;0.90;;;0.90;;
71183;SDS011;58887;51.980;4.464;2023-02-26T16:11:57;0.80;;;0.80;;
71183;SDS011;58887;51.980;4.464;2023-02-26T16:14:30;1.12;;;1.12;;
71183;SDS011;58887;51.980;4.464;2023-02-26T16:17:05;1.06;;;1.04;;
71183;SDS011;58887;51.980;4.464;2023-02-26T16:19:37;0.67;;;0.63;;
71183;SDS011;58887;51.980;4.464;2023-02-26T16:25:11;0.92;;;0.88;;
71183;SDS011;58887;51.980;4.464;2023-02-26T16:27:50;1.10;;;1.05;;
71183;SDS011;58887;51.980;4.464;2023-02-26T16:30:32;0.96;;;0.91;;
71183;SDS011;58887;51.980;4.464;2023-02-26T16:33:02;0.86;;;0.82;;
71183;SDS011;58887;51.980;4.464;2023-02-26T16:35:36;1.00;;;0.95;;
71183;SDS011;58887;51.980;4.464;2023-02-26T16:38:19;1.00;;;0.95;;
71183;SDS011;58887;51.980;4.464;2023-02-26T16:41:05;1.00;;;0.95;;
71183;SDS011;58887;51.980;4.464;2023-02-26T16:43:41;0.83;;;0.79;;
71183;SDS011;58887;51.980;4.464;2023-02-26T16:46:33;0.89;;;0.85;;
71183;SDS011;58887;51.980;4.464;2023-02-26T16:49:19;1.16;;;1.10;;
71183;SDS011;58887;51.980;4.464;2023-02-26T16:51:50;1.10;;;1.02;;
71183;SDS011;58887;51.980;4.464;2023-02-26T16:54:19;1.14;;;1.06;;
71183;SDS011;58887;51.980;4.464;2023-02-26T16:56:48;1.11;;;1.03;;
71183;SDS011;58887;51.980;4.464;2023-02-26T16:59:30;1.98;;;1.82;;
71183;SDS011;58887;51.980;4.464;2023-02-26T17:04:29;3.71;;;3.35;;
71183;SDS011;58887;51.980;4.464;2023-02-26T17:09:35;1.48;;;1.38;;
71183;SDS011;58887;51.980;4.464;2023-02-26T17:12:17;1.58;;;1.52;;
71183;SDS011;58887;51.980;4.464;2023-02-26T17:14:57;1.20;;;1.18;;
71183;SDS011;58887;51.980;4.464;2023-02-26T17:17:25;1.21;;;1.18;;
71183;SDS011;58887;51.980;4.464;2023-02-26T17:19:56;1.61;;;1.57;;
71183;SDS011;58887;51.980;4.464;2023-02-26T17:22:29;1.56;;;1.51;;
71183;SDS011;58887;51.980;4.464;2023-02-26T17:31:26;1.30;;;1.25;;
71183;SDS011;58887;51.980;4.464;2023-02-26T17:36:23;1.24;;;1.22;;
71183;SDS011;58887;51.980;4.464;2023-02-26T17:41:48;1.43;;;1.43;;
71183;SDS011;58887;51.980;4.464;2023-02-26T17:44:16;1.28;;;1.27;;
71183;SDS011;58887;51.980;4.464;2023-02-26T17:46:44;0.97;;;0.94;;
71183;SDS011;58887;51.980;4.464;2023-02-26T17:49:10;1.22;;;1.15;;
71183;SDS011;58887;51.980;4.464;2023-02-26T17:51:36;1.16;;;1.09;;
71183;SDS011;58887;51.980;4.464;2023-02-26T17:54:02;2.14;;;2.01;;
71183;SDS011;58887;51.980;4.464;2023-02-26T17:56:36;1.86;;;1.74;;
71183;SDS011;58887;51.980;4.464;2023-02-26T17:59:02;1.57;;;1.46;;
71183;SDS011;58887;51.980;4.464;2023-02-26T18:01:29;1.41;;;1.31;;
71183;SDS011;58887;51.980;4.464;2023-02-26T18:03:56;1.54;;;1.44;;
71183;SDS011;58887;51.980;4.464;2023-02-26T18:06:23;1.52;;;1.39;;
71183;SDS011;58887;51.980;4.464;2023-02-26T18:08:49;1.35;;;1.24;;
71183;SDS011;58887;51.980;4.464;2023-02-26T18:11:15;1.78;;;1.67;;
71183;SDS011;58887;51.980;4.464;2023-02-26T18:14:00;1.25;;;1.18;;
71183;SDS011;58887;51.980;4.464;2023-02-26T18:19:21;1.82;;;1.62;;
71183;SDS011;58887;51.980;4.464;2023-02-26T18:21:49;1.75;;;1.50;;
71183;SDS011;58887;51.980;4.464;2023-02-26T18:24:16;1.92;;;1.61;;
71183;SDS011;58887;51.980;4.464;2023-02-26T18:26:44;1.93;;;1.60;;
71183;SDS011;58887;51.980;4.464;2023-02-26T18:29:10;1.77;;;1.51;;
71183;SDS011;58887;51.980;4.464;2023-02-26T18:31:35;1.99;;;1.75;;
71183;SDS011;58887;51.980;4.464;2023-02-26T18:34:01;1.46;;;1.31;;
71183;SDS011;58887;51.980;4.464;2023-02-26T18:36:29;1.69;;;1.50;;
71183;SDS011;58887;51.980;4.464;2023-02-26T18:39:10;1.51;;;1.34;;
71183;SDS011;58887;51.980;4.464;2023-02-26T18:41:37;2.02;;;1.83;;
71183;SDS011;58887;51.980;4.464;2023-02-26T18:44:03;1.64;;;1.50;;
71183;SDS011;58887;51.980;4.464;2023-02-26T18:46:29;1.63;;;1.50;;
71183;SDS011;58887;51.980;4.464;2023-02-26T18:48:58;1.66;;;1.53;;
71183;SDS011;58887;51.980;4.464;2023-02-26T18:51:25;1.82;;;1.68;;
71183;SDS011;58887;51.980;4.464;2023-02-26T18:53:51;1.82;;;1.71;;
71183;SDS011;58887;51.980;4.464;2023-02-26T18:56:16;1.83;;;1.74;;
71183;SDS011;58887;51.980;4.464;2023-02-26T18:58:42;1.79;;;1.72;;
71183;SDS011;58887;51.980;4.464;2023-02-26T19:01:07;1.89;;;1.83;;
71183;SDS011;58887;51.980;4.464;2023-02-26T19:03:33;1.99;;;1.94;;
71183;SDS011;58887;51.980;4.464;2023-02-26T19:06:00;1.75;;;1.72;;
71183;SDS011;58887;51.980;4.464;2023-02-26T19:08:28;1.60;;;1.56;;
71183;SDS011;58887;51.980;4.464;2023-02-26T19:10:56;1.71;;;1.67;;
71183;SDS011;58887;51.980;4.464;2023-02-26T19:13:21;1.83;;;1.78;;
71183;SDS011;58887;51.980;4.464;2023-02-26T19:15:47;1.54;;;1.49;;
71183;SDS011;58887;51.980;4.464;2023-02-26T19:18:14;1.38;;;1.33;;
71183;SDS011;58887;51.980;4.464;2023-02-26T19:20:40;1.55;;;1.50;;
71183;SDS011;58887;51.980;4.464;2023-02-26T19:23:06;1.65;;;1.61;;